AKDT,Max TemperatureF,Mean TemperatureF,Min TemperatureF,Max Dew PointF,MeanDew PointF,Min DewpointF,Max Humidity, Mean Humidity, Min Humidity, Max Sea Level PressureIn, Mean Sea Level PressureIn, Min Sea Level PressureIn, Max VisibilityMiles, Mean VisibilityMiles, Min VisibilityMiles, Max Wind SpeedMPH, Mean Wind SpeedMPH, Max Gust SpeedMPH,PrecipitationIn, CloudCover, Events, WindDirDegrees
2012-10-1,36,30,24,30,27,23,96,0,76,30.04,30.02,29.99,10,10,10,14,9,17,0.00,5,,156
2012-10-2,37,30,22,31,28,22,96,0,76,29.98,29.85,29.78,10,10,10,17,12,21,0.00,5,,146
2012-10-3,37,35,33,36,33,30,100,0,81,29.96,29.86,29.77,10,7,0,21,11,25,T,8,Rain-Snow,219
2012-10-4,34,33,32,34,32,30,0,0,0,30.00,29.97,29.92,10,5,0,31,13,24,0.01,8,Rain-Snow,354
2012-10-5,41,37,33,37,34,31,0,0,0,29.90,29.79,29.75,10,8,1,25,14,31,0.01,7,Rain-Snow,142
2012-10-6,38,36,33,36,33,30,0,0,0,29.89,29.78,29.71,10,10,6,16,10,20,0.09,7,Rain,190
2012-10-7,37,33,29,36,33,27,0,0,0,30.22,30.04,29.91,10,6,1,17,10,20,0.13,7,Rain-Snow,272
2012-10-8,33,32,30,30,26,19,0,0,0,30.51,30.33,30.22,10,5,0,25,15,29,0.03,8,Snow,339
2012-10-9,34,32,30,29,27,22,0,0,0,30.66,30.60,30.52,10,7,0,24,16,28,0.03,8,Fog-Snow,311
2012-10-10,31,25,19,25,22,17,0,0,0,30.66,30.54,30.36,10,7,1,18,11,22,0.07,8,Snow,240
2012-10-11,33,29,24,28,26,21,0,0,0,30.32,30.04,29.90,10,5,0,28,16,32,0.01,8,Fog-Snow,298
2012-10-12,32,30,28,27,23,19,0,0,0,29.90,29.83,29.71,10,9,2,25,17,30,0.01,7,Snow,324
2012-10-13,31,28,24,27,23,18,0,0,0,29.71,29.60,29.45,10,7,1,25,16,30,0.12,7,Rain-Snow,283
2012-10-14,29,21,12,27,19,9,0,0,0,29.46,29.41,29.36,10,6,0,21,11,25,0.08,8,Fog-Snow,249
2012-10-15,28,19,9,18,13,6,0,0,0,29.66,29.56,29.46,10,10,6,16,7,18,T,6,Snow,326
2012-10-16,30,29,27,25,19,14,0,0,0,29.95,29.83,29.67,10,8,3,26,18,32,0.01,7,Snow,180
2012-10-17,32,30,28,29,26,21,0,0,0,30.17,30.04,29.95,10,3,0,30,22,38,0.12,8,Snow,1
2012-10-18,31,27,22,22,20,19,0,0,0,30.31,30.27,30.19,10,10,9,17,9,21,T,7,Snow,33
2012-10-19,29,20,10,25,18,8,0,0,0,30.34,30.31,30.29,10,8,1,12,4,13,0.06,7,Fog-Snow,218
2012-10-20,30,15,0,27,14,-2,0,0,0,30.36,30.33,30.30,10,8,2,17,12,22,T,6,Snow,187
2012-10-21,29,23,17,26,22,14,0,0,0,30.30,30.27,30.20,10,9,4,18,13,21,0.01,7,Snow,172
2012-10-22,32,22,11,29,18,7,0,0,0,30.40,30.29,30.20,10,10,9,20,13,24,T,6,Snow,199
2012-10-23,32,30,28,30,27,24,0,0,0,30.72,30.53,30.40,10,8,2,22,14,25,T,8,Snow,261
2012-10-24,29,27,25,27,24,22,0,0,0,30.76,30.66,30.50,10,6,1,21,10,24,T,8,Snow,144
2012-10-25,34,30,25,31,29,22,0,0,0,30.49,30.36,30.30,10,6,0,30,16,36,0.02,8,Fog-Rain-Snow,242
2012-10-26,32,29,25,30,27,23,0,0,0,30.36,30.33,30.26,10,5,0,14,7,17,0.01,8,Fog-Snow,272
2012-10-27,34,31,27,32,29,21,0,0,0,30.25,30.15,30.11,10,5,0,35,21,40,T,8,Fog-Snow,275
2012-10-28,27,26,24,23,20,16,0,0,0,30.15,30.06,29.92,10,6,0,32,24,39,0.03,8,Snow,285
2012-10-29,27,25,23,21,19,16,0,0,0,30.11,29.95,29.89,10,4,1,26,18,31,0.04,8,Snow,315
2012-10-30,26,24,21,21,19,13,0,0,0,30.59,30.33,30.13,10,5,1,30,21,36,0.02,8,Rain-Snow,6
2012-10-31,24,22,20,16,13,11,0,0,0,30.64,30.60,30.46,10,7,2,24,13,29,0.02,8,Snow,7